Aviation Digital Data Service (ADDS)

Output produced by METARs form (0006 UTC 27 November 2014)
found at http://www.aviationweather.gov/adds/metars/
 
KESN 262355Z 35011G16KT 7SM RA OVC012 04/04 A2994